createdAt,value
2018-12-05T00:02:20.116Z,102540.11
2018-12-05T00:04:49.215Z,102528.02
2018-12-05T00:07:18.650Z,102521.26
2018-12-05T00:09:47.451Z,102526.38
2018-12-05T00:12:16.259Z,102519.40
2018-12-05T00:14:45.832Z,102523.79
2018-12-05T00:17:14.623Z,102530.38
2018-12-05T00:19:43.520Z,102526.88
2018-12-05T00:22:12.372Z,102518.98
2018-12-05T00:24:41.198Z,102507.08
2018-12-05T00:27:10.004Z,102498.83
2018-12-05T00:29:38.835Z,102484.19
2018-12-05T00:32:07.646Z,102485.99
2018-12-05T00:34:36.435Z,102496.09
2018-12-05T00:37:06.240Z,102489.14
2018-12-05T00:39:35.048Z,102494.99
2018-12-05T00:42:03.924Z,102492.27
2018-12-05T00:44:32.754Z,102494.84
2018-12-05T00:47:01.560Z,102494.86
2018-12-05T00:49:30.963Z,102501.08
2018-12-05T00:52:00.831Z,102508.05
2018-12-05T00:54:29.744Z,102507.69
2018-12-05T00:56:58.552Z,102500.92
2018-12-05T00:59:28.095Z,102497.25
2018-12-05T01:01:57.167Z,102510.25
2018-12-05T01:04:26.092Z,102516.45
2018-12-05T01:06:54.928Z,102524.33
2018-12-05T01:09:23.739Z,102516.80
2018-12-05T01:11:52.579Z,102510.23
2018-12-05T01:14:21.388Z,102510.58
2018-12-05T01:16:50.195Z,102502.69
2018-12-05T01:19:19.069Z,102497.19
2018-12-05T01:21:47.888Z,102503.23
2018-12-05T01:24:16.744Z,102501.40
2018-12-05T01:26:45.843Z,102500.12
2018-12-05T01:29:14.632Z,102501.80
2018-12-05T01:31:43.963Z,102510.92
2018-12-05T01:34:13.737Z,102510.20
2018-12-05T01:36:42.619Z,102511.48
2018-12-05T01:39:11.423Z,102512.20
2018-12-05T01:41:40.636Z,102515.15
2018-12-05T01:44:10.064Z,102512.06
2018-12-05T01:46:38.937Z,102506.19
2018-12-05T01:49:08.475Z,102505.27
2018-12-05T01:51:37.309Z,102509.12
2018-12-05T01:54:06.728Z,102507.84
2018-12-05T01:56:36.040Z,102502.71
2018-12-05T01:59:04.867Z,102503.98
2018-12-05T02:01:33.752Z,102496.30
2018-12-05T02:04:02.586Z,102488.23
2018-12-05T02:06:31.437Z,102487.72
2018-12-05T02:09:00.255Z,102493.20
2018-12-05T02:11:29.176Z,102494.50
2018-12-05T02:13:58.010Z,102490.45
2018-12-05T02:16:26.867Z,102478.92
2018-12-05T02:18:56.305Z,102485.52
2018-12-05T02:21:25.730Z,102482.75
2018-12-05T02:23:54.547Z,102484.22
2018-12-05T02:26:23.375Z,102486.78
2018-12-05T02:28:52.223Z,102480.02
2018-12-05T02:31:21.356Z,102479.09
2018-12-05T02:33:51.215Z,102477.45
2018-12-05T02:36:20.028Z,102480.53
2018-12-05T02:38:48.830Z,102487.50
2018-12-05T02:41:17.631Z,102484.02
2018-12-05T02:43:46.505Z,102486.01
2018-12-05T02:46:15.316Z,102487.12
2018-12-05T02:48:44.170Z,102481.25
2018-12-05T02:51:13.061Z,102469.50
2018-12-05T02:53:42.643Z,102473.91
2018-12-05T02:56:12.097Z,102469.69
2018-12-05T02:58:40.947Z,102463.80
2018-12-05T03:01:10.396Z,102449.34
2018-12-05T03:03:39.249Z,102448.61
2018-12-05T03:06:08.072Z,102442.93
2018-12-05T03:08:36.879Z,102451.35
2018-12-05T03:11:05.706Z,102452.63
2018-12-05T03:13:34.517Z,102453.94
2018-12-05T03:16:03.333Z,102450.66
2018-12-05T03:18:32.936Z,102453.44
2018-12-05T03:21:01.762Z,102457.64
2018-12-05T03:23:31.140Z,102456.38
2018-12-05T03:26:00.092Z,102464.08
2018-12-05T03:28:28.832Z,102458.25
2018-12-05T03:30:57.656Z,102452.22
2018-12-05T03:33:27.172Z,102454.44
2018-12-05T03:35:55.990Z,102456.44
2018-12-05T03:38:24.799Z,102450.97
2018-12-05T03:40:53.666Z,102445.29
2018-12-05T03:43:22.467Z,102429.19
2018-12-05T03:45:51.342Z,102444.56
2018-12-05T03:48:20.151Z,102439.25
2018-12-05T03:50:49.021Z,102438.17
2018-12-05T03:53:17.847Z,102444.22
2018-12-05T03:55:46.669Z,102443.09
2018-12-05T03:58:15.493Z,102443.45
2018-12-05T04:00:44.279Z,102443.45
2018-12-05T04:03:13.425Z,102446.23
2018-12-05T04:05:43.561Z,102452.42
2018-12-05T04:08:12.432Z,102460.68
2018-12-05T04:10:41.230Z,102457.05
2018-12-05T04:13:10.662Z,102460.33
2018-12-05T04:15:41.074Z,102459.25
2018-12-05T04:18:09.895Z,102451.56
2018-12-05T04:20:38.756Z,102452.30
2018-12-05T04:23:07.646Z,102448.81
2018-12-05T04:25:36.738Z,102453.37
2018-12-05T04:28:05.612Z,102449.01
2018-12-05T04:30:34.403Z,102448.09
2018-12-05T04:33:03.938Z,102439.48
2018-12-05T04:35:32.764Z,102449.01
2018-12-05T04:38:01.597Z,102448.09
2018-12-05T04:40:30.696Z,102439.48
2018-12-05T04:42:59.587Z,102434.53
2018-12-05T04:45:28.506Z,102435.30
2018-12-05T04:47:57.349Z,102428.70
2018-12-05T04:50:26.180Z,102427.42
2018-12-05T04:52:54.996Z,102419.94
2018-12-05T04:55:23.789Z,102414.97
2018-12-05T04:57:52.657Z,102404.02
2018-12-05T05:00:22.569Z,102408.23
2018-12-05T05:02:52.476Z,102406.61
2018-12-05T05:05:21.268Z,102404.05
2018-12-05T05:07:50.085Z,102401.67
2018-12-05T05:10:18.968Z,102400.55
2018-12-05T05:12:47.819Z,102397.80
2018-12-05T05:15:16.625Z,102400.72
2018-12-05T05:17:45.415Z,102411.11
2018-12-05T05:20:14.251Z,102408.19
2018-12-05T05:22:43.183Z,102410.05
2018-12-05T05:25:12.019Z,102413.33
2018-12-05T05:27:45.910Z,102417.38
2018-12-05T05:30:10.191Z,102423.03
2018-12-05T05:32:38.994Z,102420.88
2018-12-05T05:35:08.130Z,102422.69
2018-12-05T05:37:36.942Z,102416.48
2018-12-05T05:40:05.827Z,102420.89
2018-12-05T05:42:34.705Z,102421.59
2018-12-05T05:45:03.612Z,102422.67
2018-12-05T05:47:32.475Z,102424.14
2018-12-05T05:50:01.301Z,102427.06
2018-12-05T05:52:30.168Z,102416.11
2018-12-05T05:54:58.994Z,102414.47
2018-12-05T05:57:28.101Z,102416.11
2018-12-05T05:59:56.909Z,102409.16
2018-12-05T06:02:26.384Z,102410.07
2018-12-05T06:04:55.203Z,102410.63
2018-12-05T06:07:24.033Z,102415.75
2018-12-05T06:09:52.925Z,102416.27
2018-12-05T06:12:21.748Z,102410.23
2018-12-05T06:14:50.580Z,102409.70
2018-12-05T06:17:19.411Z,102411.69
2018-12-05T06:19:48.210Z,102400.87
2018-12-05T06:22:17.050Z,102404.17
2018-12-05T06:24:45.927Z,102404.62
2018-12-05T06:27:14.725Z,102394.41
2018-12-05T06:29:44.467Z,102393.49
2018-12-05T06:32:13.304Z,102393.13
2018-12-05T06:34:42.173Z,102387.07
2018-12-05T06:37:11.159Z,102396.95
2018-12-05T06:39:39.961Z,102398.06
2018-12-05T06:42:09.087Z,102391.41
2018-12-05T06:44:37.992Z,102395.30
2018-12-05T06:47:06.864Z,102394.72
2018-12-05T06:49:35.817Z,102396.19
2018-12-05T06:52:04.655Z,102400.03
2018-12-05T06:54:33.567Z,102405.33
2018-12-05T06:57:02.413Z,102404.97
2018-12-05T06:59:31.230Z,102399.12
2018-12-05T07:02:00.926Z,102395.27
2018-12-05T07:04:29.934Z,102389.94
2018-12-05T07:06:59.745Z,102390.34
2018-12-05T07:09:28.617Z,102387.22
2018-12-05T07:11:57.414Z,102383.72
2018-12-05T07:14:26.320Z,102386.28
2018-12-05T07:16:55.116Z,102382.23
2018-12-05T07:19:24.402Z,102371.98
2018-12-05T07:21:53.292Z,102373.81
2018-12-05T07:24:22.157Z,102374.00
2018-12-05T07:26:50.971Z,102372.85
2018-12-05T07:29:19.775Z,102373.77
2018-12-05T07:31:48.614Z,102383.29
2018-12-05T07:34:17.467Z,102379.23
2018-12-05T07:36:46.291Z,102378.51
2018-12-05T07:39:15.113Z,102376.50
2018-12-05T07:41:43.987Z,102373.17
2018-12-05T07:44:13.324Z,102371.52
2018-12-05T07:46:42.151Z,102365.87
2018-12-05T07:49:10.967Z,102368.20
2018-12-05T07:51:39.958Z,102364.36
2018-12-05T07:54:09.051Z,102359.23
2018-12-05T07:56:37.842Z,102358.29
2018-12-05T07:59:06.648Z,102357.88
2018-12-05T08:01:35.463Z,102354.18
2018-12-05T08:04:04.302Z,102360.20
2018-12-05T08:06:33.789Z,102355.44
2018-12-05T08:09:02.652Z,102350.70
2018-12-05T08:11:31.526Z,102351.44
2018-12-05T08:14:00.399Z,102354.00
2018-12-05T08:16:29.250Z,102349.57
2018-12-05T08:18:58.055Z,102353.39
2018-12-05T08:21:27.072Z,102352.41
2018-12-05T08:23:55.875Z,102351.98
2018-12-05T08:26:25.733Z,102354.49
2018-12-05T08:28:54.844Z,102355.89
2018-12-05T08:31:23.992Z,102349.02
2018-12-05T08:33:52.829Z,102350.66
2018-12-05T08:36:21.685Z,102346.56
2018-12-05T08:38:51.838Z,102342.34
2018-12-05T08:41:20.949Z,102336.98
2018-12-05T08:43:49.793Z,102335.88
2018-12-05T08:46:19.660Z,102328.87
2018-12-05T08:48:48.593Z,102323.84
2018-12-05T08:51:17.414Z,102323.38
2018-12-05T08:53:46.271Z,102321.25
2018-12-05T08:56:15.072Z,102315.56
2018-12-05T08:58:44.108Z,102308.83
2018-12-05T09:01:13.554Z,102311.89
2018-12-05T09:03:42.397Z,102309.66
2018-12-05T09:06:11.201Z,102309.98
2018-12-05T09:08:41.388Z,102299.34
2018-12-05T09:11:11.028Z,102302.70
2018-12-05T09:13:39.920Z,102301.02
2018-12-05T09:16:08.711Z,102309.87
2018-12-05T09:18:37.838Z,102308.39
2018-12-05T09:21:06.785Z,102297.30
2018-12-05T09:23:35.647Z,102289.31
2018-12-05T09:26:04.536Z,102290.18
2018-12-05T09:28:34.025Z,102284.94
2018-12-05T09:31:02.839Z,102283.97
2018-12-05T09:33:31.629Z,102285.45
2018-12-05T09:36:00.416Z,102282.41
2018-12-05T09:38:30.468Z,102285.30
2018-12-05T09:41:00.640Z,102281.13
2018-12-05T09:43:29.403Z,102275.25
2018-12-05T09:45:58.239Z,102275.25
2018-12-05T09:48:27.312Z,102271.16
2018-12-05T09:50:56.120Z,102271.83
2018-12-05T09:53:24.899Z,102269.34
2018-12-05T09:55:53.766Z,102262.39
2018-12-05T09:58:22.649Z,102265.16
2018-12-05T10:00:51.521Z,102259.70
2018-12-05T10:03:20.400Z,102258.38
2018-12-05T10:05:49.208Z,102258.72
2018-12-05T10:08:18.014Z,102260.73
2018-12-05T10:10:46.804Z,102251.53
2018-12-05T10:13:15.592Z,102247.03
2018-12-05T10:15:44.445Z,102248.27
2018-12-05T10:18:13.309Z,102242.75
2018-12-05T10:20:42.618Z,102245.11
2018-12-05T10:23:12.272Z,102235.95
2018-12-05T10:25:42.081Z,102225.86
2018-12-05T10:28:11.314Z,102218.05
2018-12-05T10:30:40.201Z,102212.75
2018-12-05T10:33:09.056Z,102201.70
2018-12-05T10:35:37.927Z,102201.55
2018-12-05T10:38:06.827Z,102194.49
2018-12-05T10:40:36.526Z,102183.78
2018-12-05T10:43:05.428Z,102177.80
2018-12-05T10:45:34.319Z,102176.95
2018-12-05T10:48:03.431Z,102173.47
2018-12-05T10:50:33.284Z,102167.60
2018-12-05T10:53:02.120Z,102169.64
2018-12-05T10:55:31.568Z,102162.20
2018-12-05T10:58:00.408Z,102156.52
2018-12-05T11:00:35.211Z,102158.09
2018-12-05T11:03:09.411Z,102155.39
2018-12-05T11:05:43.739Z,102154.06
2018-12-05T11:08:17.965Z,102142.80
2018-12-05T11:10:52.250Z,102129.04
2018-12-05T11:13:26.492Z,102133.47
2018-12-05T11:16:12.728Z,102121.94
2018-12-05T11:18:46.958Z,102124.36
2018-12-05T11:21:21.739Z,102116.25
2018-12-05T11:24:56.600Z,102116.34
2018-12-05T11:27:25.797Z,102105.00
2018-12-05T11:29:56.800Z,102098.49
2018-12-05T11:32:25.606Z,102095.25
2018-12-05T11:34:54.492Z,102083.64
2018-12-05T11:37:23.327Z,102084.46
2018-12-05T11:39:54.531Z,102082.48
2018-12-05T11:42:23.287Z,102077.87
2018-12-05T11:44:52.312Z,102081.43
2018-12-05T11:47:23.047Z,102095.17
2018-12-05T11:49:53.120Z,102101.61
2018-12-05T11:52:22.186Z,102095.45
2018-12-05T11:54:51.024Z,102090.09
2018-12-05T11:57:19.863Z,102084.31
2018-12-05T11:59:49.540Z,102082.84
2018-12-05T12:02:22.262Z,102078.59
2018-12-05T12:04:47.823Z,102075.83
2018-12-05T12:07:16.672Z,102066.42
2018-12-05T12:09:45.472Z,102065.79
2018-12-05T12:12:19.753Z,102065.77
2018-12-05T12:14:48.662Z,102064.61
2018-12-05T12:17:29.184Z,102067.19
2018-12-05T12:20:01.458Z,102047.91
2018-12-05T12:22:30.891Z,102039.64
2018-12-05T12:25:04.600Z,102038.19
2018-12-05T12:27:33.399Z,102042.23
2018-12-05T12:30:02.753Z,102040.91
2018-12-05T12:32:33.126Z,102035.61
2018-12-05T12:35:01.955Z,102037.08
2018-12-05T12:37:31.643Z,102029.55
2018-12-05T12:40:00.464Z,102022.08
2018-12-05T12:42:29.288Z,102025.16
2018-12-05T12:44:58.092Z,102021.11
2018-12-05T12:47:26.930Z,102020.53
2018-12-05T12:49:55.817Z,102018.20
2018-12-05T12:52:24.680Z,102012.08
2018-12-05T12:54:53.573Z,102012.49
2018-12-05T12:57:23.143Z,102005.36
2018-12-05T12:59:51.955Z,101994.11
2018-12-05T13:02:20.760Z,101994.11
2018-12-05T13:04:50.630Z,101985.08
2018-12-05T13:07:19.479Z,101975.14
2018-12-05T13:09:48.262Z,101968.33
2018-12-05T13:12:23.484Z,101974.03
2018-12-05T13:14:52.591Z,101961.55
2018-12-05T13:17:21.376Z,101954.20
2018-12-05T13:19:50.266Z,101937.81
2018-12-05T13:22:19.079Z,101936.95
2018-12-05T13:24:47.914Z,101932.38
2018-12-05T13:27:16.754Z,101927.87
2018-12-05T13:29:45.579Z,101935.11
2018-12-05T13:32:14.383Z,101929.31
2018-12-05T13:34:43.273Z,101921.42
2018-12-05T13:37:12.097Z,101912.77
2018-12-05T13:39:40.977Z,101908.36
2018-12-05T13:42:10.160Z,101904.86
2018-12-05T13:44:39.039Z,101904.28
2018-12-05T13:47:08.664Z,101895.24
2018-12-05T13:49:38.371Z,101890.03
2018-12-05T13:52:07.941Z,101890.30
2018-12-05T13:54:37.783Z,101869.77
2018-12-05T13:57:07.342Z,101869.08
2018-12-05T13:59:36.714Z,101865.31
2018-12-05T14:02:05.748Z,101863.27
2018-12-05T14:04:34.597Z,101858.64
2018-12-05T14:07:03.804Z,101861.45
2018-12-05T14:09:32.595Z,101865.84
2018-12-05T14:12:01.480Z,101853.87
2018-12-05T14:14:30.283Z,101854.14
2018-12-05T14:17:00.275Z,101846.53
2018-12-05T14:19:29.162Z,101845.23
2018-12-05T14:21:58.247Z,101839.59
2018-12-05T14:24:27.093Z,101839.97
2018-12-05T14:26:56.118Z,101836.37
2018-12-05T14:29:26.685Z,101836.75
2018-12-05T14:31:56.443Z,101823.48
2018-12-05T14:34:27.181Z,101820.91
2018-12-05T14:36:56.020Z,101804.14
2018-12-05T14:39:24.855Z,101812.52
2018-12-05T14:41:53.673Z,101809.78
2018-12-05T14:44:25.605Z,101808.38
2018-12-05T14:46:54.495Z,101806.83
2018-12-05T14:49:23.338Z,101795.66
2018-12-05T14:51:52.769Z,101793.84
2018-12-05T14:54:22.138Z,101791.16
2018-12-05T14:56:50.929Z,101784.33
2018-12-05T14:59:22.516Z,101785.23
2018-12-05T15:01:52.159Z,101781.10
2018-12-05T15:04:20.968Z,101770.14
2018-12-05T15:06:49.800Z,101767.80
2018-12-05T15:09:19.396Z,101765.59
2018-12-05T15:11:48.851Z,101758.87
2018-12-05T15:14:18.051Z,101757.59
2018-12-05T15:16:47.792Z,101754.38
2018-12-05T15:19:17.292Z,101754.11
2018-12-05T15:21:46.911Z,101750.50
2018-12-05T15:24:22.069Z,101750.98
2018-12-05T15:26:59.082Z,101747.12
2018-12-05T15:29:27.926Z,101741.74
2018-12-05T15:31:56.742Z,101733.64
2018-12-05T15:34:25.724Z,101735.57
2018-12-05T15:36:54.580Z,101728.63
2018-12-05T15:39:24.362Z,101728.48
2018-12-05T15:41:53.420Z,101723.70
2018-12-05T15:44:23.999Z,101726.81
2018-12-05T15:46:54.454Z,101715.70
2018-12-05T15:49:31.882Z,101724.34
2018-12-05T15:52:03.586Z,101717.75
2018-12-05T15:54:33.451Z,101715.70
2018-12-05T15:57:09.661Z,101711.34
2018-12-05T15:59:33.471Z,101710.44
2018-12-05T16:02:11.384Z,101705.16
2018-12-05T16:04:41.703Z,101697.44
2018-12-05T16:07:10.603Z,101684.13
2018-12-05T16:09:39.536Z,101674.20
2018-12-05T16:12:08.330Z,101665.17
2018-12-05T16:14:38.446Z,101657.86
2018-12-05T16:17:07.876Z,101650.73
2018-12-05T16:19:36.740Z,101651.27
2018-12-05T16:22:05.615Z,101643.65
2018-12-05T16:24:34.452Z,101630.62
2018-12-05T16:27:03.296Z,101635.77
2018-12-05T16:29:33.123Z,101638.77
2018-12-05T16:32:03.504Z,101629.85
2018-12-05T16:34:32.329Z,101621.10
2018-12-05T16:37:01.192Z,101613.63
2018-12-05T16:39:30.096Z,101600.89
2018-12-05T16:42:00.551Z,101602.56
2018-12-05T16:44:31.693Z,101613.10
2018-12-05T16:47:00.592Z,101616.73
2018-12-05T16:49:29.487Z,101604.61
2018-12-05T16:51:58.287Z,101601.39
2018-12-05T16:54:27.105Z,101604.34
2018-12-05T16:56:55.938Z,101600.09
2018-12-05T16:59:24.740Z,101595.87
2018-12-05T17:01:53.531Z,101600.23
2018-12-05T17:04:22.389Z,101588.38
2018-12-05T17:06:51.239Z,101592.65
2018-12-05T17:09:25.973Z,101590.97
2018-12-05T17:11:49.181Z,101581.59
2018-12-05T17:14:18.180Z,101576.55
2018-12-05T17:16:47.479Z,101565.61
2018-12-05T17:19:16.300Z,101555.03
2018-12-05T17:21:47.197Z,101553.74
2018-12-05T17:24:15.996Z,101552.20
2018-12-05T17:26:44.905Z,101552.59
2018-12-05T17:29:13.741Z,101543.57
2018-12-05T17:31:42.645Z,101541.76
2018-12-05T17:34:11.471Z,101533.24
2018-12-05T17:36:40.311Z,101535.31
2018-12-05T17:39:10.257Z,101539.29
2018-12-05T17:41:39.065Z,101533.26
2018-12-05T17:44:08.803Z,101533.37
2018-12-05T17:46:39.231Z,101504.23
2018-12-05T17:49:08.092Z,101500.88
2018-12-05T17:51:36.946Z,101503.61
2018-12-05T17:54:05.772Z,101497.03
2018-12-05T17:56:35.146Z,101492.89
2018-12-05T17:59:03.485Z,101500.88
2018-12-05T18:01:32.328Z,101508.86
2018-12-05T18:04:01.155Z,101508.75
2018-12-05T18:06:29.946Z,101511.06
2018-12-05T18:08:58.759Z,101514.69
2018-12-05T18:11:27.599Z,101503.95
2018-12-05T18:13:56.742Z,101513.12
2018-12-05T18:16:25.655Z,101505.78
2018-12-05T18:18:55.139Z,101500.49
2018-12-05T18:21:23.936Z,101490.04
2018-12-05T18:23:53.395Z,101483.59
2018-12-05T18:26:22.164Z,101470.94
2018-12-05T18:28:50.973Z,101463.33
2018-12-05T18:31:19.881Z,101459.22
2018-12-05T18:33:48.798Z,101455.84
2018-12-05T18:36:17.699Z,101458.80
2018-12-05T18:38:46.515Z,101448.62
2018-12-05T18:41:15.326Z,101446.95
2018-12-05T18:43:44.234Z,101444.51
2018-12-05T18:46:13.061Z,101442.45
2018-12-05T18:48:42.101Z,101435.45
2018-12-05T18:51:10.926Z,101437.02
2018-12-05T18:53:39.836Z,101435.45
2018-12-05T18:56:08.744Z,101427.08
2018-12-05T18:58:37.572Z,101433.39
2018-12-05T19:01:06.467Z,101430.30
2018-12-05T19:03:35.355Z,101435.70
2018-12-05T19:06:04.191Z,101424.75
2018-12-05T19:08:34.394Z,101432.10
2018-12-05T19:11:01.800Z,101426.84
2018-12-05T19:13:30.631Z,101427.08
2018-12-05T19:15:59.468Z,101423.73
2018-12-05T19:18:28.302Z,101417.11
2018-12-05T19:20:58.765Z,101417.53
2018-12-05T19:23:27.644Z,101412.38
2018-12-05T19:25:56.466Z,101413.91
2018-12-05T19:28:25.263Z,101402.82
2018-12-05T19:30:54.100Z,101401.39
2018-12-05T19:33:23.180Z,101397.14
2018-12-05T19:35:52.058Z,101393.13
2018-12-05T19:38:20.919Z,101398.53
2018-12-05T19:40:49.783Z,101400.83
2018-12-05T19:43:18.754Z,101397.72
2018-12-05T19:45:47.600Z,101394.86
2018-12-05T19:48:20.191Z,101392.94
2018-12-05T19:50:51.219Z,101390.98
2018-12-05T19:53:20.079Z,101385.97
2018-12-05T19:55:48.939Z,101387.16
2018-12-05T19:58:17.759Z,101377.45
2018-12-05T20:00:46.548Z,101377.07
2018-12-05T20:03:15.359Z,101376.17
2018-12-05T20:05:44.517Z,101369.81
2018-12-05T20:08:13.344Z,101365.08
2018-12-05T20:10:42.203Z,101361.73
2018-12-05T20:13:11.411Z,101353.61
2018-12-05T20:15:40.223Z,101349.98
2018-12-05T20:18:09.321Z,101345.06
2018-12-05T20:20:38.215Z,101344.81
2018-12-05T20:23:08.634Z,101342.62
2018-12-05T20:25:37.418Z,101349.97
2018-12-05T20:28:06.372Z,101349.93
2018-12-05T20:30:35.248Z,101346.06
2018-12-05T20:33:04.936Z,101347.20
2018-12-05T20:35:35.140Z,101348.11
2018-12-05T20:38:04.897Z,101347.83
2018-12-05T20:40:35.371Z,101344.23
2018-12-05T20:43:04.189Z,101339.31
2018-12-05T20:45:33.038Z,101343.84
2018-12-05T20:48:02.541Z,101347.20
2018-12-05T20:50:31.887Z,101348.86
2018-12-05T20:53:01.346Z,101342.30
2018-12-05T20:55:30.233Z,101340.62
2018-12-05T20:57:59.975Z,101342.15
2018-12-05T21:00:28.803Z,101341.38
2018-12-05T21:02:57.659Z,101339.95
2018-12-05T21:05:27.272Z,101342.67
2018-12-05T21:07:56.103Z,101345.87
2018-12-05T21:10:24.916Z,101335.31
2018-12-05T21:12:53.742Z,101334.92
2018-12-05T21:15:24.639Z,101336.45
2018-12-05T21:17:53.470Z,101329.33
2018-12-05T21:20:26.461Z,101327.27
2018-12-05T21:22:55.312Z,101320.91
2018-12-05T21:25:24.337Z,101321.05
2018-12-05T21:27:53.216Z,101314.45
2018-12-05T21:30:22.091Z,101313.97
2018-12-05T21:32:50.942Z,101309.29
2018-12-05T21:35:19.770Z,101303.73
2018-12-05T21:37:48.593Z,101294.09
2018-12-05T21:40:18.600Z,101293.05
2018-12-05T21:42:47.488Z,101294.23
2018-12-05T21:45:16.347Z,101300.79
2018-12-05T21:47:45.207Z,101291.37
2018-12-05T21:50:14.048Z,101287.50
2018-12-05T21:52:42.956Z,101278.36
2018-12-05T21:55:11.910Z,101285.05
2018-12-05T21:57:40.743Z,101279.13
2018-12-05T22:00:11.788Z,101275.39
2018-12-05T22:02:40.631Z,101274.43
2018-12-05T22:05:09.499Z,101274.18
2018-12-05T22:07:38.370Z,101274.56
2018-12-05T22:10:08.808Z,101273.13
2018-12-05T22:12:37.589Z,101272.38
2018-12-05T22:15:06.662Z,101275.18
2018-12-05T22:17:35.552Z,101272.58
2018-12-05T22:20:05.231Z,101270.00
2018-12-05T22:22:34.072Z,101271.92
2018-12-05T22:25:02.947Z,101278.65
2018-12-05T22:27:31.834Z,101280.55
2018-12-05T22:30:00.672Z,101271.52
2018-12-05T22:32:29.469Z,101272.58
2018-12-05T22:34:58.275Z,101273.35
2018-12-05T22:37:27.154Z,101268.58
2018-12-05T22:39:55.974Z,101260.73
2018-12-05T22:42:26.016Z,101265.38
2018-12-05T22:44:54.884Z,101257.86
2018-12-05T22:47:23.690Z,101254.27
2018-12-05T22:49:52.507Z,101252.69
2018-12-05T22:52:21.912Z,101247.89
2018-12-05T22:54:50.751Z,101251.99
2018-12-05T22:57:19.640Z,101247.83
2018-12-05T22:59:48.450Z,101245.77
2018-12-05T23:02:17.283Z,101247.59
2018-12-05T23:04:46.157Z,101246.15
2018-12-05T23:07:15.606Z,101246.44
2018-12-05T23:09:44.527Z,101247.59
2018-12-05T23:12:14.138Z,101237.66
2018-12-05T23:14:44.228Z,101234.84
2018-12-05T23:17:14.811Z,101243.63
2018-12-05T23:19:44.321Z,101238.17
2018-12-05T23:22:13.113Z,101239.02
2018-12-05T23:24:41.999Z,101237.56
2018-12-05T23:27:11.181Z,101238.08
2018-12-05T23:29:39.991Z,101228.81
2018-12-05T23:32:08.852Z,101229.81
2018-12-05T23:34:37.668Z,101230.17
2018-12-05T23:37:06.555Z,101224.88
2018-12-05T23:39:35.387Z,101226.69
2018-12-05T23:42:04.513Z,101226.69
2018-12-05T23:44:33.328Z,101222.64
2018-12-05T23:47:02.956Z,101225.84
2018-12-05T23:49:31.766Z,101222.48
2018-12-05T23:52:00.584Z,101212.44
2018-12-05T23:54:29.447Z,101208.05
2018-12-05T23:56:58.246Z,101201.89
2018-12-05T23:59:27.063Z,101209.18
